Time;durP1;ratioP1;P1;durP2;ratioP2;P2;SDS_P1;SDS_P2;PMS_P1;PMS_P2;Temp;Humidity;BMP_temperature;BMP_pressure;BME280_temperature;BME280_humidity;BME280_pressure;Samples;Min_cycle;Max_cycle;Signal;HPM_P1;HPM_P2
2023/03/20 00:02:16;;;;;;;22.15;11.43;;;;;;;8.56;100.00;101787.41;5104506;28;20102;-61
2023/03/20 00:04:44;;;;;;;24.42;12.07;;;;;;;8.50;100.00;101785.06;5071984;28;20041;-61
2023/03/20 00:07:13;;;;;;;23.10;12.02;;;;;;;8.48;100.00;101781.63;5063794;28;20049;-61
2023/03/20 00:09:42;;;;;;;22.23;11.43;;;;;;;8.49;100.00;101786.81;5053528;28;20044;-61
2023/03/20 00:12:15;;;;;;;24.08;11.52;;;;;;;8.56;100.00;101785.66;5051686;28;20053;-60
2023/03/20 00:14:44;;;;;;;20.85;10.48;;;;;;;8.49;100.00;101780.72;5054786;28;20041;-61
2023/03/20 00:17:18;;;;;;;22.55;10.73;;;;;;;8.42;100.00;101780.09;5055513;28;20498;-61
2023/03/20 00:19:47;;;;;;;23.75;11.60;;;;;;;8.43;100.00;101784.44;5062005;28;20414;-62
2023/03/20 00:22:16;;;;;;;21.63;10.82;;;;;;;8.47;100.00;101778.19;5071440;28;20048;-61
2023/03/20 00:24:47;;;;;;;21.85;11.02;;;;;;;8.45;100.00;101791.34;5070628;28;20145;-61
2023/03/20 00:27:17;;;;;;;23.92;11.23;;;;;;;8.40;100.00;101789.81;5074503;28;20133;-62
2023/03/20 00:29:47;;;;;;;22.83;10.93;;;;;;;8.31;100.00;101780.53;5075097;28;20071;-62
2023/03/20 00:32:16;;;;;;;21.60;11.07;;;;;;;8.34;100.00;101775.16;5075114;28;20060;-62
2023/03/20 00:34:44;;;;;;;23.90;11.50;;;;;;;8.26;100.00;101766.75;5074636;28;20051;-61
2023/03/20 00:37:13;;;;;;;18.98;11.10;;;;;;;8.32;100.00;101773.50;5074896;28;20048;-62
2023/03/20 00:39:41;;;;;;;21.48;10.23;;;;;;;8.31;100.00;101777.91;5071298;28;20102;-61
2023/03/20 00:42:19;;;;;;;23.35;11.55;;;;;;;8.33;100.00;101778.72;5068749;28;20052;-61
2023/03/20 00:44:52;;;;;;;22.52;11.15;;;;;;;8.35;100.00;101774.25;5058653;28;20068;-61
2023/03/20 00:47:23;;;;;;;20.65;10.95;;;;;;;8.35;100.00;101781.28;5049706;28;20045;-62
2023/03/20 00:49:53;;;;;;;22.75;11.60;;;;;;;8.34;100.00;101774.31;5054250;28;20044;-61
2023/03/20 00:52:23;;;;;;;19.92;10.48;;;;;;;8.33;100.00;101775.22;5054826;28;20111;-61
2023/03/20 00:54:52;;;;;;;20.20;10.50;;;;;;;8.23;100.00;101778.22;5057299;28;20063;-61
2023/03/20 00:57:24;;;;;;;23.33;11.32;;;;;;;8.19;100.00;101776.63;5054530;28;20053;-62
2023/03/20 00:59:58;;;;;;;22.20;11.63;;;;;;;8.25;100.00;101773.78;5048449;28;20045;-61
2023/03/20 01:02:29;;;;;;;21.27;11.45;;;;;;;8.18;100.00;101759.22;5065105;28;20158;-61
2023/03/20 01:04:58;;;;;;;20.55;11.60;;;;;;;8.22;100.00;101757.31;5061253;28;20051;-61
2023/03/20 01:07:27;;;;;;;20.58;11.75;;;;;;;8.18;100.00;101745.25;5063985;28;20491;-61
2023/03/20 01:09:56;;;;;;;23.83;12.05;;;;;;;8.25;100.00;101757.22;5063406;28;20144;-61
2023/03/20 01:12:24;;;;;;;22.17;11.75;;;;;;;8.19;100.00;101757.44;5057200;28;20541;-62
2023/03/20 01:14:57;;;;;;;19.85;11.63;;;;;;;8.22;100.00;101766.03;5055570;28;20502;-61
2023/03/20 01:17:28;;;;;;;22.00;11.60;;;;;;;8.25;100.00;101775.56;5062632;28;20041;-61
2023/03/20 01:19:56;;;;;;;22.92;12.07;;;;;;;8.20;100.00;101793.22;5063902;28;20044;-61
2023/03/20 01:22:27;;;;;;;20.80;12.25;;;;;;;8.23;100.00;101809.66;5062481;28;20111;-61
2023/03/20 01:24:55;;;;;;;21.83;12.30;;;;;;;8.25;100.00;101809.63;5059456;28;20036;-62
2023/03/20 01:27:23;;;;;;;23.20;13.73;;;;;;;8.24;100.00;101815.78;5063640;28;20055;-61
2023/03/20 01:29:52;;;;;;;23.17;13.95;;;;;;;8.16;100.00;101821.31;5066386;28;20045;-61
2023/03/20 01:32:21;;;;;;;26.30;15.75;;;;;;;8.15;100.00;101816.13;5065193;28;20053;-61
2023/03/20 01:34:50;;;;;;;27.08;15.55;;;;;;;8.17;100.00;101819.56;5060970;28;20070;-60
2023/03/20 01:37:24;;;;;;;24.92;15.68;;;;;;;8.17;100.00;101801.22;5062528;28;21461;-61
2023/03/20 01:39:52;;;;;;;26.98;14.10;;;;;;;8.12;100.00;101793.53;5058989;28;20059;-61
2023/03/20 01:42:21;;;;;;;21.88;13.02;;;;;;;8.05;100.00;101813.03;5067207;28;20044;-61
2023/03/20 01:44:50;;;;;;;25.15;13.60;;;;;;;8.03;100.00;101820.94;5064329;28;20041;-61
2023/03/20 01:47:22;;;;;;;20.90;12.57;;;;;;;8.00;100.00;101821.03;5060306;28;20044;-61
2023/03/20 01:50:21;;;;;;;22.60;12.18;;;;;;;8.04;100.00;101822.63;5056094;28;20124;-61
2023/03/20 01:52:52;;;;;;;23.98;12.23;;;;;;;8.02;100.00;101815.78;5050783;28;20109;-61
2023/03/20 01:55:22;;;;;;;24.27;12.15;;;;;;;8.03;100.00;101810.47;5061975;28;20541;-61
2023/03/20 01:57:53;;;;;;;25.48;12.13;;;;;;;7.98;100.00;101809.78;5061359;28;20379;-60
2023/03/20 02:00:22;;;;;;;23.15;11.70;;;;;;;8.01;100.00;101808.81;5059865;28;20052;-61
2023/03/20 02:02:54;;;;;;;24.30;12.07;;;;;;;8.00;100.00;101814.97;5059426;28;20414;-61
2023/03/20 02:05:23;;;;;;;23.92;11.68;;;;;;;7.95;100.00;101810.75;5062810;28;20399;-61
2023/03/20 02:08:02;;;;;;;19.80;11.30;;;;;;;8.04;100.00;101808.69;5060306;28;20040;-61
2023/03/20 02:10:31;;;;;;;26.20;11.57;;;;;;;7.98;100.00;101806.31;5061242;28;20115;-61
2023/03/20 02:13:02;;;;;;;24.38;10.95;;;;;;;8.00;100.00;101805.31;5060869;28;20037;-61
2023/03/20 02:15:31;;;;;;;21.58;10.70;;;;;;;7.93;100.00;101802.13;5056632;28;20033;-61
2023/03/20 02:18:01;;;;;;;24.02;11.95;;;;;;;7.95;100.00;101802.06;5054236;28;20073;-61
2023/03/20 02:20:47;;;;;;;21.55;9.90;;;;;;;7.93;100.00;101802.13;5064042;28;20151;-61
2023/03/20 02:23:50;;;;;;;20.67;9.48;;;;;;;7.90;100.00;101794.34;5068029;28;20502;-61
2023/03/20 02:26:24;;;;;;;;;;;;;;;7.87;100.00;101791.88;5063363;28;20079;-61
2023/03/20 02:29:41;;;;;;;20.05;9.43;;;;;;;7.85;100.00;101791.06;5070511;28;20323;-62
2023/03/20 02:32:42;;;;;;;17.70;8.68;;;;;;;7.89;100.00;101784.78;4990091;28;20077;-62
2023/03/20 02:35:51;;;;;;;17.88;8.70;;;;;;;7.91;100.00;101788.22;4985997;28;20088;-61
2023/03/20 02:38:36;;;;;;;21.25;8.00;;;;;;;7.90;100.00;101783.88;5055503;28;20480;-61
2023/03/20 02:41:13;;;;;;;15.60;7.95;;;;;;;7.90;100.00;101780.41;5060911;28;20095;-61
2023/03/20 02:43:47;;;;;;;18.90;7.60;;;;;;;7.93;100.00;101783.78;5052719;28;20499;-61
2023/03/20 02:46:25;;;;;;;18.33;8.05;;;;;;;7.90;100.00;101799.59;5063107;28;20058;-61
2023/03/20 02:48:58;;;;;;;18.70;8.15;;;;;;;7.91;100.00;101790.00;5067849;28;20047;-61
2023/03/20 02:51:37;;;;;;;16.33;8.07;;;;;;;7.90;100.00;101786.50;5067753;28;20048;-61
2023/03/20 02:54:14;;;;;;;13.80;6.28;;;;;;;7.82;100.00;101780.72;5066983;28;20040;-61
2023/03/20 02:56:56;;;;;;;14.32;6.00;;;;;;;7.86;100.00;101771.81;5055240;28;20033;-61
2023/03/20 02:59:32;;;;;;;12.45;5.47;;;;;;;7.82;100.00;101778.09;5048164;28;20053;-61
2023/03/20 03:02:07;;;;;;;12.90;5.57;;;;;;;7.77;100.00;101780.91;5052260;28;20057;-61
2023/03/20 03:04:39;;;;;;;13.18;5.07;;;;;;;7.79;100.00;101783.44;5052674;28;20478;-61
2023/03/20 03:07:11;;;;;;;10.85;4.07;;;;;;;7.71;100.00;101790.75;5063619;28;20048;-61
2023/03/20 03:09:46;;;;;;;7.88;3.55;;;;;;;7.78;100.00;101789.59;5068346;28;20044;-61
2023/03/20 03:12:18;;;;;;;9.45;3.85;;;;;;;7.78;100.00;101785.22;5053356;28;20533;-61
2023/03/20 03:14:49;;;;;;;10.07;3.85;;;;;;;7.75;100.00;101776.63;5052036;28;20041;-60
2023/03/20 03:17:20;;;;;;;12.50;3.65;;;;;;;7.72;100.00;101779.38;5049330;28;20103;-60
2023/03/20 03:19:52;;;;;;;11.68;4.25;;;;;;;7.76;100.00;101775.72;5048105;28;20071;-61
2023/03/20 03:22:21;;;;;;;9.82;3.70;;;;;;;7.65;100.00;101780.50;5048185;28;20047;-61
2023/03/20 03:24:53;;;;;;;8.20;3.65;;;;;;;7.68;100.00;101778.63;5049523;28;20080;-61
2023/03/20 03:27:25;;;;;;;8.75;3.80;;;;;;;7.71;100.00;101770.63;5051653;28;20495;-61
2023/03/20 03:29:57;;;;;;;10.77;4.40;;;;;;;7.63;100.00;101762.22;5070782;28;20045;-61
2023/03/20 03:32:29;;;;;;;14.70;5.43;;;;;;;7.56;100.00;101755.53;5056947;28;20138;-60
2023/03/20 03:34:59;;;;;;;12.95;5.88;;;;;;;7.61;100.00;101751.81;5047671;28;20052;-60
2023/03/20 03:37:43;;;;;;;12.75;5.47;;;;;;;7.53;100.00;101732.94;5047833;28;20481;-60
2023/03/20 03:40:21;;;;;;;11.25;4.88;;;;;;;7.57;100.00;101716.19;5048305;28;20504;-61
2023/03/20 03:42:56;;;;;;;19.40;5.43;;;;;;;7.49;100.00;101720.03;5062419;28;20123;-61
2023/03/20 03:45:33;;;;;;;12.55;5.05;;;;;;;7.53;100.00;101712.00;5068155;28;20070;-60
2023/03/20 03:48:07;;;;;;;11.77;5.40;;;;;;;7.49;100.00;101710.41;5052332;28;20044;-61
2023/03/20 03:50:46;;;;;;;12.05;5.13;;;;;;;7.41;100.00;101713.31;5051946;28;20540;-61
2023/03/20 03:53:18;;;;;;;11.32;5.45;;;;;;;7.40;100.00;101719.47;5068933;28;20553;-60
2023/03/20 03:55:52;;;;;;;11.73;5.55;;;;;;;7.41;100.00;101721.16;5071039;28;20040;-60
2023/03/20 03:58:26;;;;;;;14.85;6.28;;;;;;;7.35;100.00;101724.03;5054020;28;20167;-61
2023/03/20 04:00:57;;;;;;;15.15;6.05;;;;;;;7.36;100.00;101723.13;5051699;28;20498;-61
2023/03/20 04:03:31;;;;;;;13.17;5.47;;;;;;;7.38;100.00;101725.69;5051299;28;20120;-61
2023/03/20 04:06:02;;;;;;;12.55;5.18;;;;;;;7.41;100.00;101722.94;5055240;28;20553;-61
2023/03/20 04:08:31;;;;;;;14.98;5.43;;;;;;;7.43;100.00;101728.94;5064468;28;20135;-61
2023/03/20 04:11:01;;;;;;;11.95;5.65;;;;;;;7.37;100.00;101726.56;5070370;28;20075;-61
2023/03/20 04:13:30;;;;;;;12.52;5.25;;;;;;;7.37;100.00;101718.72;5056110;28;20131;-61
2023/03/20 04:15:58;;;;;;;15.15;6.53;;;;;;;7.36;100.00;101724.88;5051030;28;20072;-61
2023/03/20 04:18:26;;;;;;;14.05;5.80;;;;;;;7.27;100.00;101720.84;5051261;28;20049;-61
2023/03/20 04:20:55;;;;;;;15.05;6.72;;;;;;;7.24;100.00;101716.56;5050951;28;20145;-60
2023/03/20 04:23:23;;;;;;;12.85;7.13;;;;;;;7.18;100.00;101710.72;5053458;28;20041;-60
2023/03/20 04:25:52;;;;;;;15.88;7.90;;;;;;;7.08;100.00;101707.59;5052996;28;20136;-61
2023/03/20 04:28:21;;;;;;;18.20;8.85;;;;;;;7.13;100.00;101703.03;5063452;28;20050;-61
2023/03/20 04:30:53;;;;;;;19.70;9.57;;;;;;;7.12;100.00;101701.34;5070342;28;20131;-60
2023/03/20 04:33:22;;;;;;;23.05;10.57;;;;;;;7.10;100.00;101698.78;5057850;28;20049;-60
2023/03/20 04:35:50;;;;;;;19.63;10.27;;;;;;;7.04;100.00;101708.59;5051150;28;20064;-60
2023/03/20 04:38:20;;;;;;;20.60;10.15;;;;;;;7.00;100.00;101701.78;5051727;28;20369;-61
2023/03/20 04:40:48;;;;;;;23.88;11.30;;;;;;;6.93;100.00;101704.59;5049568;28;20057;-61
2023/03/20 04:43:17;;;;;;;20.08;11.25;;;;;;;6.91;100.00;101708.19;5060741;28;20067;-60
2023/03/20 04:45:47;;;;;;;25.67;11.77;;;;;;;6.90;100.00;101707.34;5064536;28;20048;-61
2023/03/20 04:48:15;;;;;;;22.48;12.18;;;;;;;6.87;100.00;101702.22;5064095;28;20045;-61
2023/03/20 04:50:47;;;;;;;23.60;12.13;;;;;;;6.86;100.00;101707.50;5067727;28;20071;-60
2023/03/20 04:53:16;;;;;;;26.92;12.95;;;;;;;6.82;100.00;101708.53;5061061;28;20083;-61
2023/03/20 04:55:45;;;;;;;25.23;12.38;;;;;;;6.86;100.00;101697.91;5063824;28;20036;-61
2023/03/20 04:58:13;;;;;;;33.00;13.25;;;;;;;6.75;100.00;101700.06;5059201;28;20044;-61
2023/03/20 05:00:42;;;;;;;26.52;12.48;;;;;;;6.75;100.00;101702.66;5053833;28;20123;-61
2023/03/20 05:03:11;;;;;;;25.80;13.30;;;;;;;6.72;100.00;101714.09;5058867;28;20041;-61
2023/03/20 05:05:40;;;;;;;24.75;12.07;;;;;;;6.72;100.00;101713.22;5065944;28;20123;-60
2023/03/20 05:08:08;;;;;;;26.63;12.88;;;;;;;6.74;100.00;101709.63;5056677;28;20095;-60
2023/03/20 05:10:37;;;;;;;24.63;12.68;;;;;;;6.79;100.00;101709.50;5060901;28;20087;-60
2023/03/20 05:13:05;;;;;;;28.95;11.88;;;;;;;6.76;100.00;101715.69;5069694;28;20108;-60
2023/03/20 05:15:34;;;;;;;23.70;12.07;;;;;;;6.73;100.00;101713.16;5063769;28;20500;-60
2023/03/20 05:18:02;;;;;;;25.15;11.48;;;;;;;6.76;100.00;101706.97;5062457;28;20045;-60
2023/03/20 05:20:32;;;;;;;22.75;11.50;;;;;;;6.69;100.00;101697.63;5058597;28;20044;-60
2023/03/20 05:23:00;;;;;;;25.13;11.88;;;;;;;6.65;100.00;101703.88;5058523;28;20044;-60
2023/03/20 05:25:33;;;;;;;25.05;10.75;;;;;;;6.60;100.00;101689.22;5065753;28;20049;-60
2023/03/20 05:28:02;;;;;;;18.75;9.95;;;;;;;6.56;100.00;101697.22;5056529;28;20399;-60
2023/03/20 05:30:30;;;;;;;21.58;9.45;;;;;;;6.62;100.00;101702.22;5061395;28;20051;-60
2023/03/20 05:32:59;;;;;;;22.42;10.25;;;;;;;6.60;100.00;101697.06;5059960;28;20042;-60
2023/03/20 05:35:27;;;;;;;19.15;8.80;;;;;;;6.58;100.00;101696.25;5061597;28;20102;-60
2023/03/20 05:37:57;;;;;;;19.42;8.50;;;;;;;6.55;100.00;101705.97;5056368;28;20094;-61
2023/03/20 05:40:26;;;;;;;20.75;8.60;;;;;;;6.53;100.00;101695.56;5059944;28;20056;-60
2023/03/20 05:42:54;;;;;;;20.45;9.10;;;;;;;6.56;100.00;101702.47;5060704;28;20036;-61
2023/03/20 05:45:23;;;;;;;16.02;8.73;;;;;;;6.55;100.00;101708.59;5054472;28;20143;-60
2023/03/20 05:47:51;;;;;;;19.98;7.97;;;;;;;6.54;100.00;101706.88;5061981;28;20050;-61
2023/03/20 05:50:20;;;;;;;19.85;8.40;;;;;;;6.55;100.00;101714.66;5047969;28;20598;-61
2023/03/20 05:52:49;;;;;;;18.35;8.35;;;;;;;6.52;100.00;101716.53;5055410;28;20044;-61
2023/03/20 05:55:19;;;;;;;21.67;9.40;;;;;;;6.49;100.00;101722.72;5056559;28;20045;-61
2023/03/20 05:57:48;;;;;;;19.48;9.85;;;;;;;6.44;100.00;101724.63;5065424;28;20044;-61
2023/03/20 06:00:17;;;;;;;16.65;8.48;;;;;;;6.50;100.00;101723.56;5067304;28;20060;-61
2023/03/20 06:02:45;;;;;;;17.50;8.43;;;;;;;6.49;100.00;101725.34;5065134;28;20040;-60
2023/03/20 06:05:14;;;;;;;18.88;8.48;;;;;;;6.53;100.00;101728.66;5062940;28;20055;-61
2023/03/20 06:07:43;;;;;;;16.42;7.90;;;;;;;6.49;100.00;101725.34;5060209;28;20139;-61
2023/03/20 06:10:12;;;;;;;18.58;8.80;;;;;;;6.48;100.00;101728.84;5056870;28;20068;-60
2023/03/20 06:12:42;;;;;;;18.27;9.32;;;;;;;6.53;100.00;101729.53;5062239;28;20040;-60
2023/03/20 06:15:11;;;;;;;20.05;9.15;;;;;;;6.51;100.00;101730.50;5065993;28;20036;-60
2023/03/20 06:17:39;;;;;;;22.25;8.50;;;;;;;6.59;100.00;101737.16;5058598;28;20484;-60
2023/03/20 06:20:09;;;;;;;17.25;7.57;;;;;;;6.59;100.00;101737.16;5065971;28;20392;-60
2023/03/20 06:22:38;;;;;;;21.10;8.30;;;;;;;6.54;100.00;101740.84;5057891;28;20504;-61
2023/03/20 06:25:07;;;;;;;17.23;8.07;;;;;;;6.58;100.00;101739.84;5060287;28;20049;-60
2023/03/20 06:27:36;;;;;;;19.27;9.63;;;;;;;6.55;100.00;101732.94;5056527;28;20048;-60
2023/03/20 06:30:07;;;;;;;18.88;8.50;;;;;;;6.53;100.00;101737.38;5061123;28;20056;-60
2023/03/20 06:32:35;;;;;;;18.15;8.88;;;;;;;6.56;100.00;101737.28;5055366;28;20459;-60
2023/03/20 06:35:06;;;;;;;19.65;9.30;;;;;;;6.57;100.00;101736.38;5057871;28;20057;-60
2023/03/20 06:37:35;;;;;;;20.10;8.07;;;;;;;6.60;100.00;101740.66;5056574;28;20040;-61
2023/03/20 06:40:05;;;;;;;19.23;8.73;;;;;;;6.68;100.00;101729.91;5056822;28;20072;-61
2023/03/20 06:42:35;;;;;;;19.88;8.65;;;;;;;6.73;100.00;101722.75;5052390;28;20136;-61
2023/03/20 06:45:07;;;;;;;15.45;8.40;;;;;;;6.77;100.00;101734.81;5052438;28;20049;-61
2023/03/20 06:47:35;;;;;;;20.23;8.57;;;;;;;6.77;100.00;101729.59;5052657;28;20057;-61
2023/03/20 06:50:04;;;;;;;18.25;9.13;;;;;;;6.77;100.00;101724.38;5052501;28;20071;-61
2023/03/20 06:52:32;;;;;;;18.70;8.55;;;;;;;6.83;100.00;101734.63;5052079;28;20120;-61
2023/03/20 06:55:01;;;;;;;18.42;7.65;;;;;;;6.87;100.00;101743.19;5048276;28;20098;-61
2023/03/20 06:57:29;;;;;;;19.15;8.10;;;;;;;6.85;100.00;101743.25;5049012;28;20497;-61
2023/03/20 06:59:58;;;;;;;16.48;8.07;;;;;;;6.91;100.00;101747.41;5050642;28;20055;-61
2023/03/20 07:02:28;;;;;;;16.45;7.57;;;;;;;6.93;100.00;101745.59;5049402;28;20587;-61
2023/03/20 07:04:56;;;;;;;16.27;8.38;;;;;;;6.90;100.00;101754.41;5047492;28;20049;-61
2023/03/20 07:07:25;;;;;;;18.75;7.93;;;;;;;6.94;100.00;101758.63;5048087;28;20057;-61
2023/03/20 07:09:53;;;;;;;16.50;8.05;;;;;;;6.90;100.00;101759.66;5048545;28;20057;-61
2023/03/20 07:12:25;;;;;;;19.02;8.57;;;;;;;6.92;100.00;101759.59;5048145;28;20499;-61
2023/03/20 07:14:53;;;;;;;16.15;8.18;;;;;;;6.94;100.00;101768.25;5048361;28;20041;-61
2023/03/20 07:17:22;;;;;;;16.52;9.10;;;;;;;6.97;100.00;101757.66;5050622;28;20067;-61
2023/03/20 07:19:52;;;;;;;17.48;8.32;;;;;;;7.04;100.00;101760.91;5051964;28;20049;-61
2023/03/20 07:22:23;;;;;;;17.95;7.80;;;;;;;7.08;100.00;101762.53;5084460;28;20055;-61
2023/03/20 07:24:51;;;;;;;15.55;8.30;;;;;;;7.09;100.00;101764.22;5049862;28;20041;-61
2023/03/20 07:27:20;;;;;;;17.40;7.95;;;;;;;7.10;100.00;101761.56;5048148;28;20072;-61
2023/03/20 07:29:48;;;;;;;17.25;7.93;;;;;;;7.05;100.00;101766.09;5048498;28;20049;-61
2023/03/20 07:32:16;;;;;;;16.90;8.07;;;;;;;7.16;100.00;101757.88;5046169;28;20061;-61
2023/03/20 07:34:46;;;;;;;21.75;8.13;;;;;;;7.22;100.00;101760.25;5047250;28;20096;-60
2023/03/20 07:37:16;;;;;;;17.60;7.85;;;;;;;7.23;100.00;101764.56;5048055;28;20053;-61
2023/03/20 07:39:45;;;;;;;16.92;8.13;;;;;;;7.23;100.00;101763.72;5049971;28;20056;-61
2023/03/20 07:42:13;;;;;;;16.17;7.47;;;;;;;7.26;100.00;101764.44;5048758;28;20386;-61
2023/03/20 07:44:42;;;;;;;16.30;7.35;;;;;;;7.35;100.00;101765.03;5048123;28;20091;-61
2023/03/20 07:47:10;;;;;;;18.17;7.47;;;;;;;7.41;100.00;101775.28;5047558;28;20052;-61
2023/03/20 07:49:40;;;;;;;16.67;8.13;;;;;;;7.34;100.00;101769.41;5047417;28;20478;-61
2023/03/20 07:52:08;;;;;;;17.45;7.35;;;;;;;7.31;100.00;101766.91;5047821;28;20049;-61
2023/03/20 07:54:38;;;;;;;17.00;6.90;;;;;;;7.38;100.00;101768.38;5049357;28;20045;-61
2023/03/20 07:57:07;;;;;;;13.20;6.53;;;;;;;7.46;100.00;101765.50;5055090;28;20045;-61
2023/03/20 07:59:35;;;;;;;16.73;7.53;;;;;;;7.27;100.00;101763.56;5052481;28;20045;-61
2023/03/20 08:02:05;;;;;;;17.45;7.45;;;;;;;7.35;100.00;101767.63;5050851;28;20055;-61
2023/03/20 08:04:33;;;;;;;16.45;6.97;;;;;;;7.44;100.00;101764.69;5049901;28;20053;-61
2023/03/20 08:07:02;;;;;;;15.65;6.38;;;;;;;7.45;100.00;101766.41;5051634;28;20061;-61
2023/03/20 08:09:30;;;;;;;15.23;7.13;;;;;;;7.52;100.00;101767.03;5052957;28;20049;-61
2023/03/20 08:12:00;;;;;;;15.02;6.82;;;;;;;7.55;100.00;101761.66;5055342;28;20040;-61
2023/03/20 08:14:28;;;;;;;16.42;6.55;;;;;;;7.54;100.00;101768.69;5055239;28;20071;-61
2023/03/20 08:16:57;;;;;;;14.10;6.72;;;;;;;7.51;100.00;101766.19;5055269;28;20103;-61
2023/03/20 08:19:41;;;;;;;15.25;6.50;;;;;;;7.61;100.00;101764.91;5055568;28;20052;-62
2023/03/20 08:22:10;;;;;;;14.93;6.63;;;;;;;7.61;100.00;101758.84;5053801;28;20375;-61
2023/03/20 08:24:38;;;;;;;14.25;6.72;;;;;;;7.55;100.00;101764.28;5054146;28;20048;-61
2023/03/20 08:27:08;;;;;;;15.45;6.20;;;;;;;7.60;100.00;101763.19;5051442;28;20069;-61
2023/03/20 08:29:37;;;;;;;16.20;6.68;;;;;;;7.52;100.00;101760.00;5051485;28;20048;-62
2023/03/20 08:32:06;;;;;;;14.95;6.80;;;;;;;7.56;100.00;101758.97;5050217;28;20075;-61
2023/03/20 08:34:34;;;;;;;16.02;6.60;;;;;;;7.58;100.00;101762.41;5050041;28;20045;-61
2023/03/20 08:37:03;;;;;;;16.52;6.10;;;;;;;7.66;100.00;101758.66;5050719;28;20299;-61
2023/03/20 08:39:33;;;;;;;15.52;6.50;;;;;;;7.69;100.00;101764.63;5050461;28;20687;-61
2023/03/20 08:42:01;;;;;;;12.98;6.05;;;;;;;7.75;100.00;101764.38;5050894;28;20041;-61
2023/03/20 08:44:31;;;;;;;16.45;6.60;;;;;;;7.77;100.00;101754.72;5050457;28;20110;-61
2023/03/20 08:47:00;;;;;;;18.48;6.65;;;;;;;7.73;100.00;101755.75;5049767;28;20542;-61
2023/03/20 08:49:28;;;;;;;15.60;6.68;;;;;;;7.79;100.00;101755.50;5049550;28;20059;-61
2023/03/20 08:51:57;;;;;;;15.95;6.10;;;;;;;7.84;100.00;101750.09;5050854;28;20033;-61
2023/03/20 08:54:25;;;;;;;16.10;6.28;;;;;;;7.84;100.00;101757.94;5050404;28;20057;-61
2023/03/20 08:56:54;;;;;;;15.77;6.45;;;;;;;7.87;100.00;101752.56;5050674;28;20049;-61
2023/03/20 08:59:22;;;;;;;13.27;5.85;;;;;;;7.98;100.00;101746.06;5052986;28;20403;-61
2023/03/20 09:01:52;;;;;;;15.38;6.03;;;;;;;7.95;100.00;101753.13;5054294;28;20048;-61
2023/03/20 09:04:20;;;;;;;22.52;6.05;;;;;;;7.95;100.00;101755.75;5053464;28;20056;-61
2023/03/20 09:06:50;;;;;;;14.50;6.10;;;;;;;8.05;100.00;101750.16;5049091;28;20047;-61
2023/03/20 09:09:20;;;;;;;18.98;5.50;;;;;;;8.00;100.00;101755.56;5048515;28;20044;-62
2023/03/20 09:11:48;;;;;;;15.18;6.20;;;;;;;8.08;100.00;101752.63;5052682;28;20431;-61
2023/03/20 09:14:17;;;;;;;15.25;5.70;;;;;;;8.09;100.00;101751.72;5050815;28;20128;-61
2023/03/20 09:16:45;;;;;;;16.35;5.97;;;;;;;8.09;100.00;101752.56;5049921;28;20049;-61
2023/03/20 09:19:15;;;;;;;14.18;6.07;;;;;;;8.16;100.00;101762.81;5054344;28;20497;-61
2023/03/20 09:21:44;;;;;;;14.68;5.55;;;;;;;8.21;100.00;101763.50;5054050;28;20526;-61
2023/03/20 09:24:12;;;;;;;15.75;5.70;;;;;;;8.21;100.00;101760.88;5086397;28;20131;-61
2023/03/20 09:26:41;;;;;;;12.70;5.05;;;;;;;8.27;100.00;101758.81;5050892;28;20045;-61
2023/03/20 09:29:09;;;;;;;11.45;5.03;;;;;;;8.29;100.00;101757.00;5049875;28;20088;-61
2023/03/20 09:31:37;;;;;;;13.50;4.80;;;;;;;8.38;100.00;101757.53;5049308;28;20103;-61
2023/03/20 09:34:06;;;;;;;14.68;5.75;;;;;;;8.45;100.00;101756.41;5048927;28;20037;-61
2023/03/20 09:36:36;;;;;;;12.02;5.47;;;;;;;8.47;100.00;101767.69;5051763;28;20041;-61
2023/03/20 09:39:05;;;;;;;14.43;5.22;;;;;;;8.55;100.00;101768.22;5053629;28;20407;-61
2023/03/20 09:41:36;;;;;;;13.48;4.85;;;;;;;8.67;100.00;101771.22;5048994;28;20051;-61
2023/03/20 09:44:44;;;;;;;13.70;4.80;;;;;;;8.83;100.00;101769.66;5049568;28;20056;-61
2023/03/20 09:47:20;;;;;;;14.75;4.60;;;;;;;8.88;100.00;101780.81;5048839;28;20553;-61
2023/03/20 09:49:59;;;;;;;13.13;4.78;;;;;;;8.82;100.00;101788.97;5048915;28;20040;-61
2023/03/20 09:52:32;;;;;;;11.77;4.10;;;;;;;8.82;100.00;101783.72;5050678;28;20048;-61
2023/03/20 09:55:06;;;;;;;14.13;5.35;;;;;;;8.86;100.00;101785.28;5051535;28;20049;-61
2023/03/20 09:57:39;;;;;;;12.35;4.50;;;;;;;8.84;100.00;101799.38;5049444;28;20063;-61
2023/03/20 10:00:15;;;;;;;12.10;4.60;;;;;;;8.74;100.00;101791.03;5084731;28;20385;-61
2023/03/20 10:02:50;;;;;;;12.70;4.72;;;;;;;8.85;100.00;101791.44;5051936;28;20045;-61
2023/03/20 10:05:23;;;;;;;9.75;3.85;;;;;;;8.91;100.00;101793.78;5053135;28;20053;-61
2023/03/20 10:07:55;;;;;;;13.57;4.68;;;;;;;8.89;100.00;101794.78;5050371;28;20041;-61
2023/03/20 10:10:31;;;;;;;12.30;4.67;;;;;;;8.95;100.00;101802.41;5047850;28;20088;-61
2023/03/20 10:13:12;;;;;;;15.63;5.13;;;;;;;8.88;100.00;101793.09;5052009;28;20439;-61
2023/03/20 10:15:49;;;;;;;13.20;5.10;;;;;;;8.98;100.00;101796.16;5049042;28;20396;-61
2023/03/20 10:18:24;;;;;;;13.13;5.40;;;;;;;8.99;100.00;101782.13;5047807;28;20052;-61
2023/03/20 10:20:58;;;;;;;14.88;5.30;;;;;;;9.05;100.00;101789.72;5048875;28;20458;-61
2023/03/20 10:23:36;;;;;;;13.52;5.78;;;;;;;9.03;100.00;101779.28;5049319;28;20049;-61
2023/03/20 10:26:09;;;;;;;14.43;5.50;;;;;;;9.07;100.00;101786.13;5052667;28;20049;-61
2023/03/20 10:28:44;;;;;;;16.15;5.80;;;;;;;9.04;100.00;101785.38;5052619;28;20488;-61
2023/03/20 10:31:26;;;;;;;15.38;5.03;;;;;;;9.01;100.00;101777.66;5053302;28;20041;-61
2023/03/20 10:34:02;;;;;;;14.83;5.40;;;;;;;9.10;100.00;101770.22;5052075;28;20455;-61
2023/03/20 10:36:51;;;;;;;13.13;5.18;;;;;;;9.19;100.00;101771.59;5048506;28;20539;-61
2023/03/20 10:39:34;;;;;;;14.23;5.50;;;;;;;9.27;100.00;101772.13;5048345;28;20149;-61
2023/03/20 10:42:12;;;;;;;12.55;4.57;;;;;;;9.24;100.00;101761.75;5052229;28;20577;-61
2023/03/20 10:44:49;;;;;;;13.57;4.95;;;;;;;9.22;100.00;101765.38;5051507;28;20055;-61
2023/03/20 10:47:21;;;;;;;11.77;4.68;;;;;;;9.21;100.00;101761.88;5049675;28;20403;-61
2023/03/20 10:49:54;;;;;;;8.40;3.65;;;;;;;9.14;100.00;101763.91;5046780;28;20052;-61
2023/03/20 10:52:27;;;;;;;12.93;4.90;;;;;;;9.36;100.00;101767.38;5051893;28;20519;-61
2023/03/20 10:55:00;;;;;;;12.07;4.47;;;;;;;9.33;100.00;101762.28;5051435;28;20091;-61
2023/03/20 10:57:34;;;;;;;10.55;4.32;;;;;;;9.21;100.00;101763.66;5048153;28;20056;-61
2023/03/20 11:00:03;;;;;;;10.98;4.00;;;;;;;9.32;100.00;101764.03;5082886;28;20048;-61
2023/03/20 11:02:32;;;;;;;10.38;4.25;;;;;;;9.24;100.00;101769.63;5052342;28;20052;-61
2023/03/20 11:05:21;;;;;;;11.35;3.80;;;;;;;9.30;100.00;101764.09;5051524;28;20037;-61
2023/03/20 11:08:00;;;;;;;11.25;3.70;;;;;;;9.38;100.00;101755.00;5048039;28;20416;-61
2023/03/20 11:10:32;;;;;;;9.70;3.70;;;;;;;9.40;100.00;101754.03;5047117;28;20167;-61
2023/03/20 11:13:15;;;;;;;10.80;3.57;;;;;;;9.47;100.00;101752.84;5048128;28;20053;-62
2023/03/20 11:15:44;;;;;;;12.43;3.65;;;;;;;9.51;100.00;101756.16;5046977;28;20045;-61
2023/03/20 11:18:15;;;;;;;10.30;3.80;;;;;;;9.50;100.00;101764.94;5045263;28;20047;-61
2023/03/20 11:20:46;;;;;;;9.98;3.78;;;;;;;9.50;100.00;101749.19;5048376;28;20496;-61
2023/03/20 11:23:20;;;;;;;12.60;3.58;;;;;;;9.42;100.00;101746.06;5048122;28;20052;-61
2023/03/20 11:25:52;;;;;;;11.07;4.40;;;;;;;9.30;100.00;101753.59;5047451;28;20057;-61
2023/03/20 11:28:27;;;;;;;;;;;;;;;9.41;100.00;101754.91;5048754;28;20128;-60
2023/03/20 11:31:00;;;;;;;10.63;3.78;;;;;;;9.42;100.00;101753.94;5052765;28;19928;-60
2023/03/20 11:33:36;;;;;;;9.95;2.75;;;;;;;9.28;100.00;101750.19;5056073;28;20045;-60
2023/03/20 11:36:12;;;;;;;11.77;2.97;;;;;;;9.23;100.00;101749.56;5052232;28;20722;-59
2023/03/20 11:38:45;;;;;;;9.98;3.30;;;;;;;9.23;100.00;101739.06;5052156;28;20547;-60